Time;durP1;ratioP1;P1;durP2;ratioP2;P2;SDS_P1;SDS_P2;PMS_P1;PMS_P2;Temp;Humidity;BMP_temperature;BMP_pressure;BME280_temperature;BME280_humidity;BME280_pressure;Samples;Min_cycle;Max_cycle;Signal;HPM_P1;HPM_P2
2022/08/16 00:01:03;;;;;;;42.45;33.08;;;22.10;99.90;;;;;;5094760;28;20178;-54
2022/08/16 00:03:29;;;;;;;39.83;32.15;;;22.00;99.90;;;;;;5077561;28;20182;-49
2022/08/16 00:05:54;;;;;;;38.75;30.45;;;22.00;99.90;;;;;;5060321;28;20186;-51
2022/08/16 00:08:20;;;;;;;34.80;30.70;;;22.00;99.90;;;;;;5086542;28;20668;-51
2022/08/16 00:10:46;;;;;;;41.25;32.00;;;21.90;99.90;;;;;;5104191;28;20189;-49
2022/08/16 00:13:12;;;;;;;38.17;31.25;;;21.90;99.90;;;;;;5087290;28;20192;-51
2022/08/16 00:15:44;;;;;;;40.55;31.92;;;21.90;99.90;;;;;;5113738;28;20218;-47
2022/08/16 00:18:11;;;;;;;38.15;30.88;;;21.90;99.90;;;;;;5068752;28;20178;-55
2022/08/16 00:20:39;;;;;;;36.92;30.90;;;21.90;99.90;;;;;;5094954;28;20194;-51
2022/08/16 00:23:05;;;;;;;36.53;29.08;;;21.90;99.90;;;;;;5095387;28;20199;-47
2022/08/16 00:25:31;;;;;;;34.85;28.05;;;21.90;99.90;;;;;;5076038;28;20725;-50
2022/08/16 00:27:57;;;;;;;40.70;29.25;;;21.90;99.90;;;;;;5110368;28;20296;-50
2022/08/16 00:30:23;;;;;;;37.03;29.45;;;21.90;99.90;;;;;;5093628;28;20177;-50
2022/08/16 00:32:52;;;;;;;34.63;29.50;;;21.90;99.90;;;;;;5059926;28;20202;-51
2022/08/16 00:35:24;;;;;;;35.38;28.42;;;21.90;99.90;;;;;;5102078;28;20197;-52
2022/08/16 00:37:50;;;;;;;34.88;27.98;;;22.00;99.90;;;;;;5112205;28;20181;-52
2022/08/16 00:40:35;;;;;;;30.90;26.65;;;21.90;99.90;;;;;;5076167;28;20702;-54
2022/08/16 00:43:06;;;;;;;33.50;27.45;;;21.90;99.90;;;;;;5094684;28;20177;-48
2022/08/16 00:45:31;;;;;;;31.83;26.02;;;21.90;99.90;;;;;;5095677;28;20191;-51
2022/08/16 00:47:57;;;;;;;39.20;26.33;;;21.90;99.90;;;;;;5091686;28;20221;-47
2022/08/16 00:50:27;;;;;;;33.33;25.98;;;21.90;99.90;;;;;;5094212;28;20189;-50
2022/08/16 00:52:53;;;;;;;37.30;26.50;;;21.90;99.90;;;;;;5094399;28;20189;-48
2022/08/16 00:55:22;;;;;;;35.95;27.20;;;21.90;99.90;;;;;;5075735;28;20273;-51
2022/08/16 00:57:51;;;;;;;35.97;27.88;;;21.90;99.90;;;;;;5078762;28;20170;-51
2022/08/16 01:00:17;;;;;;;38.95;28.13;;;21.90;99.90;;;;;;5079428;28;20211;-52
2022/08/16 01:02:43;;;;;;;34.22;28.48;;;21.90;99.90;;;;;;5112699;28;20633;-56
2022/08/16 01:05:09;;;;;;;33.22;26.73;;;21.90;99.90;;;;;;5094019;28;20182;-49
2022/08/16 01:07:35;;;;;;;34.97;28.33;;;21.90;99.90;;;;;;5093429;28;20217;-53
2022/08/16 01:10:01;;;;;;;33.17;26.52;;;21.90;99.90;;;;;;5095854;28;20276;-50
2022/08/16 01:12:27;;;;;;;37.15;29.08;;;21.90;99.90;;;;;;5114269;28;20601;-50
2022/08/16 01:14:57;;;;;;;36.60;28.42;;;21.90;99.90;;;;;;5094778;28;20570;-50
2022/08/16 01:17:25;;;;;;;34.90;28.83;;;21.90;99.90;;;;;;5102930;28;20189;-48
2022/08/16 01:19:56;;;;;;;38.13;29.17;;;21.90;99.90;;;;;;5091533;28;20268;-53
2022/08/16 01:22:38;;;;;;;36.80;28.98;;;21.80;99.90;;;;;;5113802;28;20229;-46
2022/08/16 01:25:11;;;;;;;37.83;30.08;;;21.80;99.90;;;;;;5110678;28;20181;-49
2022/08/16 01:27:48;;;;;;;38.15;28.52;;;21.80;99.90;;;;;;5112703;28;20205;-54
2022/08/16 01:30:16;;;;;;;36.95;29.58;;;21.80;99.90;;;;;;5080776;28;20176;-51
2022/08/16 01:32:42;;;;;;;38.67;29.55;;;21.80;99.90;;;;;;5093459;28;20173;-51
2022/08/16 01:35:22;;;;;;;37.53;29.55;;;21.80;99.90;;;;;;5093360;28;20189;-48
2022/08/16 01:37:51;;;;;;;41.00;29.10;;;21.80;99.90;;;;;;5112008;28;20199;-49
2022/08/16 01:40:21;;;;;;;40.97;29.92;;;21.80;99.90;;;;;;5075135;28;20597;-50
2022/08/16 01:42:48;;;;;;;41.53;29.80;;;21.80;99.90;;;;;;5075525;28;20174;-49
2022/08/16 01:45:16;;;;;;;37.60;29.77;;;21.80;99.90;;;;;;5093114;28;20170;-50
2022/08/16 01:47:44;;;;;;;37.47;29.67;;;21.80;99.90;;;;;;5093419;28;20292;-51
2022/08/16 01:50:10;;;;;;;40.47;30.85;;;21.80;99.90;;;;;;5093027;28;20200;-57
2022/08/16 01:52:37;;;;;;;36.30;30.00;;;21.80;99.90;;;;;;5094096;28;20181;-57
2022/08/16 01:55:10;;;;;;;36.47;30.13;;;21.80;99.90;;;;;;5075039;28;20173;-49
2022/08/16 01:57:37;;;;;;;37.38;31.08;;;21.80;99.90;;;;;;5081805;28;20188;-51
2022/08/16 02:00:08;;;;;;;39.53;31.90;;;21.70;99.90;;;;;;5071454;28;20213;-48
2022/08/16 02:02:39;;;;;;;41.25;31.77;;;21.70;99.90;;;;;;5110218;28;20195;-49
2022/08/16 02:05:06;;;;;;;43.97;33.45;;;21.70;99.90;;;;;;5081542;28;20210;-49
2022/08/16 02:07:32;;;;;;;40.40;32.55;;;21.60;99.90;;;;;;5113113;28;20246;-54
2022/08/16 02:09:58;;;;;;;45.88;34.53;;;21.60;99.90;;;;;;5093878;28;20269;-49
2022/08/16 02:12:28;;;;;;;47.17;34.60;;;21.50;99.90;;;;;;5074539;28;20174;-49
2022/08/16 02:14:55;;;;;;;47.60;35.63;;;21.50;99.90;;;;;;5074617;28;20202;-49
2022/08/16 02:17:21;;;;;;;51.00;37.30;;;21.40;99.90;;;;;;5077614;28;20169;-47
2022/08/16 02:19:48;;;;;;;49.55;37.75;;;21.40;99.90;;;;;;5092024;28;20188;-50
2022/08/16 02:22:18;;;;;;;48.15;37.33;;;21.30;99.90;;;;;;5091552;28;20212;-46
2022/08/16 02:24:44;;;;;;;51.10;38.33;;;21.30;99.90;;;;;;5099634;28;20188;-53
2022/08/16 02:27:10;;;;;;;52.90;39.38;;;21.30;99.90;;;;;;5093568;28;20181;-47
2022/08/16 02:29:36;;;;;;;49.15;39.25;;;21.20;99.90;;;;;;5093754;28;20310;-49
2022/08/16 02:32:04;;;;;;;51.75;39.65;;;21.20;99.90;;;;;;5094300;28;20177;-47
2022/08/16 02:34:30;;;;;;;52.83;40.97;;;21.20;99.90;;;;;;5108911;28;20239;-51
2022/08/16 02:36:56;;;;;;;55.75;41.13;;;21.20;99.90;;;;;;5093589;28;20284;-48
2022/08/16 02:39:23;;;;;;;53.90;40.83;;;21.20;99.90;;;;;;5093548;28;20332;-50
2022/08/16 02:41:51;;;;;;;51.78;41.03;;;21.20;99.90;;;;;;5111548;28;20333;-46
2022/08/16 02:44:18;;;;;;;54.50;41.58;;;21.10;99.90;;;;;;5110006;28;20268;-53
2022/08/16 02:46:47;;;;;;;60.35;41.83;;;21.10;99.90;;;;;;5112849;28;20217;-55
2022/08/16 02:49:13;;;;;;;56.88;41.38;;;21.10;99.90;;;;;;5091526;28;20680;-50
2022/08/16 02:51:41;;;;;;;54.25;42.17;;;21.00;99.90;;;;;;5094738;28;20181;-47
2022/08/16 02:54:08;;;;;;;58.65;42.08;;;21.00;99.90;;;;;;5097615;28;20264;-51
2022/08/16 02:56:34;;;;;;;54.40;42.00;;;21.00;99.90;;;;;;5089973;28;20181;-51
2022/08/16 02:59:01;;;;;;;59.63;42.80;;;21.00;99.90;;;;;;5100385;28;20300;-48
2022/08/16 03:01:31;;;;;;;58.30;42.72;;;21.10;99.90;;;;;;5074759;28;20181;-49
2022/08/16 03:04:00;;;;;;;55.95;42.70;;;21.10;99.90;;;;;;5079227;28;20177;-48
2022/08/16 03:06:27;;;;;;;65.50;44.20;;;21.00;99.90;;;;;;5078012;28;20174;-49
2022/08/16 03:08:58;;;;;;;59.03;43.95;;;21.00;99.90;;;;;;5078514;28;20217;-48
2022/08/16 03:11:24;;;;;;;61.55;44.33;;;21.00;99.90;;;;;;5078085;28;20666;-47
2022/08/16 03:13:53;;;;;;;59.28;44.30;;;21.00;99.90;;;;;;5086771;28;20177;-50
2022/08/16 03:16:20;;;;;;;56.70;43.53;;;20.90;99.90;;;;;;5097968;28;20620;-50
2022/08/16 03:18:46;;;;;;;61.38;44.95;;;20.90;99.90;;;;;;5088103;28;20173;-50
2022/08/16 03:21:13;;;;;;;60.65;44.40;;;20.90;99.90;;;;;;5077542;28;20560;-51
2022/08/16 03:23:40;;;;;;;63.25;45.15;;;20.80;99.90;;;;;;5071703;28;20224;-51
2022/08/16 03:26:09;;;;;;;61.85;46.60;;;20.80;99.90;;;;;;5095779;28;20273;-50
2022/08/16 03:28:36;;;;;;;60.53;45.35;;;20.80;99.90;;;;;;5062063;28;20256;-49
2022/08/16 03:31:03;;;;;;;61.95;45.63;;;20.70;99.90;;;;;;5076924;28;20596;-49
2022/08/16 03:33:29;;;;;;;63.60;45.30;;;20.70;99.90;;;;;;5077722;28;20190;-51
2022/08/16 03:35:58;;;;;;;64.10;47.78;;;20.70;99.90;;;;;;5090291;28;20188;-50
2022/08/16 03:38:35;;;;;;;64.95;46.35;;;20.70;99.90;;;;;;5096821;28;20197;-47
2022/08/16 03:41:05;;;;;;;60.38;45.42;;;20.60;99.90;;;;;;5096809;28;20200;-52
2022/08/16 03:43:33;;;;;;;62.85;47.88;;;20.60;99.90;;;;;;5110587;28;20192;-49
2022/08/16 03:45:59;;;;;;;65.82;49.13;;;20.60;99.90;;;;;;5078473;28;20197;-52
2022/08/16 03:48:33;;;;;;;66.68;49.35;;;20.60;99.90;;;;;;5084470;28;20597;-51
2022/08/16 03:51:03;;;;;;;64.18;48.30;;;20.60;99.90;;;;;;5097869;28;20512;-49
2022/08/16 03:53:33;;;;;;;66.85;48.08;;;20.50;99.90;;;;;;5096338;28;20184;-48
2022/08/16 03:55:59;;;;;;;67.20;49.58;;;20.50;99.90;;;;;;5113059;28;20211;-51
2022/08/16 03:58:25;;;;;;;65.70;47.53;;;20.50;99.90;;;;;;5096284;28;20678;-48
2022/08/16 04:00:54;;;;;;;65.63;48.25;;;20.50;99.90;;;;;;5113673;28;20177;-49
2022/08/16 04:03:21;;;;;;;64.80;46.95;;;20.50;99.90;;;;;;5095371;28;20234;-52
2022/08/16 04:05:49;;;;;;;68.30;49.53;;;20.50;99.90;;;;;;5115668;28;20177;-51
2022/08/16 04:08:19;;;;;;;67.32;47.72;;;20.40;99.90;;;;;;5096136;28;20216;-52
2022/08/16 04:10:47;;;;;;;64.60;47.92;;;20.40;99.90;;;;;;5114387;28;20177;-51
2022/08/16 04:13:13;;;;;;;67.30;47.40;;;20.40;99.90;;;;;;5105919;28;20205;-55
2022/08/16 04:15:39;;;;;;;64.07;47.45;;;20.40;99.90;;;;;;5095765;28;20680;-51
2022/08/16 04:18:18;;;;;;;61.60;47.08;;;20.40;99.90;;;;;;5090351;28;20205;-46
2022/08/16 04:20:44;;;;;;;62.42;46.63;;;20.40;99.90;;;;;;5060064;28;20642;-47
2022/08/16 04:23:11;;;;;;;67.75;46.75;;;20.40;99.90;;;;;;5079443;28;20186;-51
2022/08/16 04:25:39;;;;;;;67.22;47.65;;;20.40;99.90;;;;;;5091639;28;20210;-50
2022/08/16 04:28:07;;;;;;;66.05;46.55;;;20.40;99.90;;;;;;5075341;28;20213;-51
2022/08/16 04:30:34;;;;;;;62.53;47.25;;;20.40;99.90;;;;;;5076165;28;20189;-59
2022/08/16 04:33:00;;;;;;;60.95;46.10;;;20.40;99.90;;;;;;5094929;28;20177;-48
2022/08/16 04:35:28;;;;;;;62.80;46.13;;;20.30;99.90;;;;;;5085234;28;20272;-51
2022/08/16 04:37:55;;;;;;;67.90;47.15;;;20.30;99.90;;;;;;5093662;28;20188;-50
2022/08/16 04:40:26;;;;;;;60.50;45.15;;;20.30;99.90;;;;;;5082994;28;20189;-51
2022/08/16 04:42:54;;;;;;;59.92;44.47;;;20.30;99.90;;;;;;5091121;28;20696;-52
2022/08/16 04:45:23;;;;;;;60.03;44.55;;;20.30;99.90;;;;;;5096386;28;20189;-58
2022/08/16 04:47:49;;;;;;;58.28;43.50;;;20.30;99.90;;;;;;5094007;28;20233;-50
2022/08/16 04:50:23;;;;;;;64.05;44.67;;;20.30;99.90;;;;;;5075945;28;20185;-51
2022/08/16 04:53:12;;;;;;;60.75;44.05;;;20.20;99.90;;;;;;5094267;27;20170;-52
2022/08/16 04:55:43;;;;;;;57.63;44.70;;;20.20;99.90;;;;;;5075833;28;20704;-50
2022/08/16 04:58:09;;;;;;;56.70;43.97;;;20.20;99.90;;;;;;5094667;28;20190;-53
2022/08/16 05:00:36;;;;;;;57.85;44.25;;;20.20;99.90;;;;;;5082013;28;20755;-58
2022/08/16 05:03:12;;;;;;;61.63;43.15;;;20.20;99.90;;;;;;5094968;28;20189;-50
2022/08/16 05:05:46;;;;;;;57.92;43.75;;;20.10;99.90;;;;;;5095932;28;20185;-53
2022/08/16 05:08:15;;;;;;;60.88;42.55;;;20.10;99.90;;;;;;5087581;28;20634;-49
2022/08/16 05:10:44;;;;;;;55.75;43.35;;;20.10;99.90;;;;;;5083696;28;20216;-49
2022/08/16 05:13:11;;;;;;;56.45;43.28;;;20.10;99.90;;;;;;5094848;28;20231;-56
2022/08/16 05:15:37;;;;;;;60.13;42.83;;;20.20;99.90;;;;;;5096003;28;20517;-48
2022/08/16 05:18:03;;;;;;;57.92;43.10;;;20.10;99.90;;;;;;5076586;28;20218;-52
2022/08/16 05:20:39;;;;;;;56.47;41.72;;;20.10;99.90;;;;;;5060720;28;20170;-49
2022/08/16 05:23:06;;;;;;;56.17;42.55;;;20.10;99.90;;;;;;5076082;28;20219;-48
2022/08/16 05:25:32;;;;;;;59.47;42.90;;;20.10;99.90;;;;;;5074611;28;20174;-48
2022/08/16 05:27:58;;;;;;;63.55;43.92;;;20.10;99.90;;;;;;5075659;28;20741;-48
2022/08/16 05:30:24;;;;;;;59.05;43.40;;;20.20;99.90;;;;;;5075282;28;20621;-47
2022/08/16 05:32:51;;;;;;;56.53;43.35;;;20.20;99.90;;;;;;5080341;28;20181;-49
2022/08/16 05:35:18;;;;;;;59.17;42.85;;;20.30;99.90;;;;;;5083749;28;20660;-49
2022/08/16 05:38:02;;;;;;;57.83;42.60;;;20.30;99.90;;;;;;5110094;28;20200;-53
2022/08/16 05:40:30;;;;;;;59.35;43.63;;;20.30;99.90;;;;;;5091734;28;20192;-51
2022/08/16 05:42:57;;;;;;;56.22;41.90;;;20.30;99.90;;;;;;5092096;28;20618;-48
2022/08/16 05:45:23;;;;;;;54.42;41.80;;;20.30;99.90;;;;;;5058191;28;20177;-51
2022/08/16 05:47:53;;;;;;;59.53;40.80;;;20.40;99.90;;;;;;5061820;28;20243;-50
2022/08/16 05:50:19;;;;;;;56.38;41.95;;;20.40;99.90;;;;;;5075277;28;20269;-52
2022/08/16 05:52:45;;;;;;;52.20;41.00;;;20.40;99.90;;;;;;5075408;28;20181;-54
2022/08/16 05:55:11;;;;;;;56.75;41.42;;;20.50;99.90;;;;;;5075155;28;20190;-51
2022/08/16 05:57:37;;;;;;;57.17;42.30;;;20.50;99.90;;;;;;5074355;28;20214;-50
2022/08/16 06:00:10;;;;;;;56.75;40.45;;;20.50;99.90;;;;;;5093766;28;20295;-49
2022/08/16 06:02:39;;;;;;;59.20;42.53;;;20.50;99.90;;;;;;5092202;28;20232;-56
2022/08/16 06:05:17;;;;;;;57.40;41.08;;;20.60;99.90;;;;;;5075072;28;20185;-49
2022/08/16 06:07:44;;;;;;;60.40;41.90;;;20.60;99.90;;;;;;5086969;28;20296;-52
2022/08/16 06:10:20;;;;;;;55.88;42.55;;;20.60;99.90;;;;;;5074691;28;20170;-47
2022/08/16 06:12:45;;;;;;;62.90;41.97;;;20.60;99.90;;;;;;5075315;28;20225;-52
2022/08/16 06:15:15;;;;;;;60.55;43.03;;;20.60;99.90;;;;;;5092707;28;20215;-51
2022/08/16 06:17:42;;;;;;;58.47;42.65;;;20.60;99.90;;;;;;5074879;28;20189;-52
2022/08/16 06:20:10;;;;;;;60.97;43.15;;;20.60;99.90;;;;;;5075271;28;20201;-52
2022/08/16 06:22:37;;;;;;;57.95;41.80;;;20.60;99.90;;;;;;5074259;28;20177;-49
2022/08/16 06:25:04;;;;;;;59.72;42.42;;;20.70;99.90;;;;;;5091165;28;20200;-51
2022/08/16 06:27:30;;;;;;;62.50;43.40;;;20.70;99.90;;;;;;5089779;28;20173;-51
2022/08/16 06:29:56;;;;;;;59.42;41.83;;;20.70;99.90;;;;;;5106855;28;20193;-50
2022/08/16 06:32:23;;;;;;;56.70;41.75;;;20.70;99.90;;;;;;5094357;28;20652;-53
2022/08/16 06:34:49;;;;;;;61.50;43.38;;;20.70;99.90;;;;;;5080443;28;20517;-51
2022/08/16 06:37:16;;;;;;;64.13;43.83;;;20.70;99.90;;;;;;5096243;28;20279;-52
2022/08/16 06:39:43;;;;;;;68.35;45.17;;;20.80;99.90;;;;;;5097369;28;20188;-51
2022/08/16 06:42:18;;;;;;;64.95;45.10;;;20.80;99.90;;;;;;5067898;28;20177;-51
2022/08/16 06:45:16;;;;;;;65.53;44.28;;;20.80;99.90;;;;;;5099365;28;20592;-50
2022/08/16 06:47:55;;;;;;;67.65;45.53;;;20.90;99.90;;;;;;5095065;28;20318;-50
2022/08/16 06:50:23;;;;;;;63.83;45.47;;;20.90;99.90;;;;;;5083812;28;20181;-48
2022/08/16 06:52:49;;;;;;;67.55;45.53;;;21.00;99.90;;;;;;5095186;28;20188;-50
2022/08/16 06:55:16;;;;;;;62.20;44.80;;;21.00;99.90;;;;;;5078313;28;20185;-48
2022/08/16 06:57:53;;;;;;;68.35;45.80;;;21.10;99.90;;;;;;5096681;28;20190;-48
2022/08/16 07:00:21;;;;;;;65.90;45.75;;;21.20;99.90;;;;;;5061365;28;20185;-51
2022/08/16 07:02:53;;;;;;;74.70;46.38;;;21.20;99.90;;;;;;5078572;28;20191;-52
2022/08/16 07:05:19;;;;;;;77.70;46.03;;;21.30;99.90;;;;;;5097604;28;20271;-52
2022/08/16 07:08:10;;;;;;;69.95;45.65;;;21.30;99.90;;;;;;5093588;28;20694;-50
2022/08/16 07:10:37;;;;;;;71.85;46.22;;;21.40;99.90;;;;;;5077838;28;20664;-49
2022/08/16 07:13:04;;;;;;;69.65;46.28;;;21.40;99.90;;;;;;5081513;28;20184;-51
2022/08/16 07:15:30;;;;;;;68.25;46.35;;;21.50;99.90;;;;;;5081400;28;20285;-51
2022/08/16 07:17:58;;;;;;;69.35;44.05;;;21.60;99.90;;;;;;5094956;28;20174;-48
2022/08/16 07:20:26;;;;;;;69.45;43.45;;;21.60;99.90;;;;;;5077799;28;20182;-48
2022/08/16 07:22:54;;;;;;;67.38;43.55;;;21.60;99.90;;;;;;5077933;28;20695;-49
2022/08/16 07:25:25;;;;;;;65.78;43.92;;;21.70;99.90;;;;;;5061394;28;20699;-48
2022/08/16 07:27:52;;;;;;;66.85;42.35;;;21.70;99.90;;;;;;5077947;28;20225;-49
2022/08/16 07:30:22;;;;;;;69.72;42.20;;;21.80;99.90;;;;;;5061242;28;20545;-50
2022/08/16 07:32:49;;;;;;;71.50;42.95;;;21.90;99.90;;;;;;5077216;28;20186;-46
2022/08/16 07:35:16;;;;;;;59.97;40.03;;;21.90;99.90;;;;;;5085483;28;20541;-47
2022/08/16 07:37:42;;;;;;;65.65;41.28;;;22.00;99.90;;;;;;5079685;28;20204;-47
2022/08/16 07:40:15;;;;;;;63.88;41.42;;;22.00;99.90;;;;;;5095947;28;20246;-52
2022/08/16 07:42:43;;;;;;;58.42;40.10;;;22.00;99.90;;;;;;5096154;28;20632;-47
2022/08/16 07:45:10;;;;;;;64.72;40.28;;;22.10;99.90;;;;;;5105100;28;20181;-49
2022/08/16 07:47:37;;;;;;;62.72;40.63;;;22.10;99.90;;;;;;5078718;28;20221;-49
2022/08/16 07:50:04;;;;;;;61.28;39.67;;;22.10;99.90;;;;;;5115613;28;20193;-52
2022/08/16 07:52:31;;;;;;;63.55;41.22;;;22.20;99.90;;;;;;5080654;28;20254;-51
2022/08/16 07:54:57;;;;;;;61.38;40.70;;;22.30;99.90;;;;;;5096063;28;20613;-50
2022/08/16 07:57:24;;;;;;;63.88;39.33;;;22.20;99.90;;;;;;5079467;28;20193;-48
2022/08/16 07:59:50;;;;;;;55.67;38.88;;;22.30;99.90;;;;;;5092474;28;20182;-52
2022/08/16 08:02:18;;;;;;;57.25;37.47;;;22.30;99.90;;;;;;5060041;28;20227;-50
2022/08/16 08:04:44;;;;;;;60.55;39.40;;;22.30;99.90;;;;;;5076980;28;20170;-52
2022/08/16 08:07:11;;;;;;;60.08;38.13;;;22.30;99.90;;;;;;5076951;28;20637;-56
2022/08/16 08:09:37;;;;;;;57.28;38.55;;;22.40;99.90;;;;;;5076921;28;20240;-50
2022/08/16 08:12:03;;;;;;;58.38;36.70;;;22.40;99.90;;;;;;5078862;28;20275;-48
2022/08/16 08:14:35;;;;;;;53.03;36.28;;;22.50;99.90;;;;;;5080068;28;20192;-52
2022/08/16 08:17:03;;;;;;;51.53;36.75;;;22.60;99.90;;;;;;5096081;28;20673;-49
2022/08/16 08:19:32;;;;;;;61.63;37.30;;;22.60;99.90;;;;;;5080395;28;20186;-47
2022/08/16 08:21:57;;;;;;;50.13;33.88;;;22.60;99.90;;;;;;5076925;28;20189;-48
2022/08/16 08:24:33;;;;;;;47.88;33.45;;;22.70;99.90;;;;;;5077199;28;20181;-49
2022/08/16 08:27:01;;;;;;;42.38;29.48;;;22.70;99.90;;;;;;5090536;28;20189;-49
2022/08/16 08:29:27;;;;;;;45.97;29.58;;;22.70;99.90;;;;;;5098564;28;20216;-47
2022/08/16 08:31:53;;;;;;;42.92;29.23;;;22.80;99.90;;;;;;5076113;28;20182;-49
2022/08/16 08:34:20;;;;;;;44.35;29.73;;;22.80;99.90;;;;;;5076849;28;20186;-47
2022/08/16 08:36:47;;;;;;;43.03;28.65;;;22.90;99.90;;;;;;5079945;28;20196;-49
2022/08/16 08:39:27;;;;;;;42.08;29.65;;;23.00;99.90;;;;;;5095249;28;20254;-50
2022/08/16 08:41:52;;;;;;;43.35;27.23;;;23.00;99.90;;;;;;5096508;28;20577;-46
2022/08/16 08:44:20;;;;;;;40.42;28.27;;;23.10;99.90;;;;;;5077252;28;20209;-49
2022/08/16 08:46:46;;;;;;;33.60;22.35;;;23.20;99.90;;;;;;5078111;28;20229;-46
2022/08/16 08:49:12;;;;;;;36.63;23.10;;;23.20;99.90;;;;;;5095907;28;20209;-48
2022/08/16 08:51:41;;;;;;;39.25;25.50;;;23.30;99.90;;;;;;5096660;28;20262;-48
2022/08/16 08:54:09;;;;;;;34.75;22.45;;;23.40;99.90;;;;;;5094207;28;20178;-47
2022/08/16 08:56:37;;;;;;;32.22;22.75;;;23.40;99.90;;;;;;5096635;28;20186;-52
2022/08/16 08:59:10;;;;;;;38.67;22.67;;;23.50;99.90;;;;;;5078968;28;20199;-51
2022/08/16 09:01:39;;;;;;;32.45;20.92;;;23.50;99.90;;;;;;5095687;28;20276;-49
2022/08/16 09:04:07;;;;;;;27.70;20.42;;;23.60;99.90;;;;;;5091897;28;20669;-49
2022/08/16 09:06:34;;;;;;;29.17;20.05;;;23.70;99.90;;;;;;5092721;28;20192;-51
2022/08/16 09:09:02;;;;;;;31.42;20.05;;;23.70;99.90;;;;;;5086366;28;20212;-50
2022/08/16 09:11:30;;;;;;;30.08;19.45;;;23.70;99.90;;;;;;5096419;28;20869;-50
2022/08/16 09:13:56;;;;;;;29.13;18.95;;;23.80;99.90;;;;;;5095443;28;20202;-50
2022/08/16 09:16:22;;;;;;;27.02;17.50;;;23.80;99.90;;;;;;5095119;28;20309;-48
2022/08/16 09:18:49;;;;;;;28.15;18.88;;;23.80;99.90;;;;;;5094643;28;20276;-49
2022/08/16 09:21:15;;;;;;;30.58;18.60;;;24.00;99.90;;;;;;5095795;28;20288;-48
2022/08/16 09:23:41;;;;;;;28.23;19.63;;;24.10;99.90;;;;;;5098134;27;20189;-49
2022/08/16 09:26:11;;;;;;;31.50;20.65;;;24.20;99.90;;;;;;5059077;28;20178;-49
2022/08/16 09:28:37;;;;;;;33.40;21.48;;;24.20;99.90;;;;;;5059067;28;20201;-48
2022/08/16 09:31:19;;;;;;;38.00;20.25;;;24.20;99.90;;;;;;5089764;28;20663;-47
2022/08/16 09:33:45;;;;;;;28.08;17.35;;;24.20;99.90;;;;;;5112004;28;20245;-52
2022/08/16 09:36:11;;;;;;;25.10;15.88;;;24.30;99.90;;;;;;5113387;28;20217;-50
2022/08/16 09:38:38;;;;;;;25.23;16.58;;;24.40;99.90;;;;;;5098341;28;20625;-50
2022/08/16 09:41:07;;;;;;;29.42;16.52;;;24.30;99.90;;;;;;5075337;28;20193;-50
2022/08/16 09:43:34;;;;;;;21.15;15.65;;;24.30;99.90;;;;;;5066064;28;20185;-48
2022/08/16 09:46:02;;;;;;;20.92;14.38;;;24.20;99.90;;;;;;5093065;28;20621;-48
2022/08/16 09:48:31;;;;;;;25.25;14.30;;;24.20;99.90;;;;;;5104294;28;20289;-49
2022/08/16 09:50:57;;;;;;;26.33;14.88;;;24.20;99.90;;;;;;5095373;28;20209;-51
2022/08/16 09:53:24;;;;;;;22.42;16.35;;;24.10;99.90;;;;;;5100007;28;20190;-52
2022/08/16 09:55:54;;;;;;;28.45;15.50;;;24.20;99.90;;;;;;5093137;28;20629;-50
2022/08/16 09:58:22;;;;;;;29.38;17.02;;;24.20;99.90;;;;;;5096253;28;20182;-52
2022/08/16 10:00:49;;;;;;;25.50;16.40;;;24.40;99.90;;;;;;5093377;28;20571;-51
2022/08/16 10:03:16;;;;;;;26.30;15.73;;;24.40;99.90;;;;;;5074811;28;20597;-51
2022/08/16 10:05:42;;;;;;;23.60;15.60;;;24.50;99.90;;;;;;5093047;28;20576;-48
2022/08/16 10:08:08;;;;;;;27.90;16.88;;;24.50;99.90;;;;;;5085112;28;20216;-51
2022/08/16 10:10:34;;;;;;;27.25;16.00;;;24.60;99.90;;;;;;5095155;28;20193;-48
2022/08/16 10:13:13;;;;;;;28.05;17.58;;;24.70;99.90;;;;;;5093821;28;20181;-51
2022/08/16 10:15:47;;;;;;;26.65;16.63;;;24.70;99.90;;;;;;5112322;28;20177;-46
2022/08/16 10:18:13;;;;;;;23.92;16.10;;;24.70;99.90;;;;;;5094084;28;20577;-49
2022/08/16 10:20:43;;;;;;;28.52;16.67;;;24.70;99.90;;;;;;5104461;28;20193;-52
2022/08/16 10:23:12;;;;;;;27.85;17.08;;;24.80;99.90;;;;;;5093280;28;20173;-50
2022/08/16 10:25:43;;;;;;;30.23;17.10;;;24.90;99.90;;;;;;5092343;28;20633;-52
2022/08/16 10:28:10;;;;;;;23.40;15.07;;;24.90;99.90;;;;;;5093994;28;20213;-49
2022/08/16 10:30:37;;;;;;;25.10;15.75;;;24.90;99.90;;;;;;5113086;28;20223;-47
2022/08/16 10:33:03;;;;;;;26.08;16.15;;;24.90;99.90;;;;;;5102108;28;20178;-51
2022/08/16 10:35:30;;;;;;;25.95;16.45;;;25.00;99.90;;;;;;5102658;28;20234;-49
2022/08/16 10:37:56;;;;;;;29.38;15.73;;;25.00;99.90;;;;;;5091875;28;20679;-51
2022/08/16 10:40:22;;;;;;;22.02;16.10;;;25.00;99.90;;;;;;5113102;28;20242;-48
2022/08/16 10:42:49;;;;;;;24.65;15.15;;;25.10;99.90;;;;;;5076893;28;20185;-48
2022/08/16 10:45:16;;;;;;;26.95;16.05;;;25.10;99.90;;;;;;5095105;28;20179;-50
2022/08/16 10:47:43;;;;;;;26.98;15.63;;;25.10;99.90;;;;;;5107205;28;20217;-47
2022/08/16 10:50:09;;;;;;;22.15;15.32;;;25.20;99.90;;;;;;5087921;28;20595;-48
2022/08/16 10:52:34;;;;;;;25.00;16.65;;;25.20;99.90;;;;;;5109574;28;20189;-48
2022/08/16 10:55:01;;;;;;;28.30;16.55;;;25.20;99.90;;;;;;5112798;28;20230;-52
2022/08/16 10:57:27;;;;;;;27.50;16.52;;;25.20;99.90;;;;;;5107530;28;20177;-49
2022/08/16 10:59:54;;;;;;;24.73;16.98;;;25.20;99.90;;;;;;5092708;28;20170;-51
2022/08/16 11:02:21;;;;;;;32.03;17.35;;;25.30;99.90;;;;;;5091491;28;20170;-47
2022/08/16 11:04:47;;;;;;;24.17;16.38;;;25.30;99.90;;;;;;5074627;28;20170;-49
2022/08/16 11:07:13;;;;;;;22.27;16.15;;;25.40;99.90;;;;;;5092942;28;20543;-49
2022/08/16 11:09:39;;;;;;;21.38;17.02;;;25.50;99.90;;;;;;5092364;28;20206;-50
2022/08/16 11:12:05;;;;;;;25.92;17.50;;;25.60;99.90;;;;;;5093186;28;20178;-51
2022/08/16 11:14:32;;;;;;;29.23;17.80;;;25.60;99.90;;;;;;5111541;28;20596;-51
2022/08/16 11:17:00;;;;;;;29.40;16.38;;;25.60;99.90;;;;;;5092972;28;20178;-49
2022/08/16 11:19:28;;;;;;;24.92;16.67;;;25.60;99.90;;;;;;5092488;28;20300;-49
2022/08/16 11:21:55;;;;;;;27.35;16.02;;;25.60;99.90;;;;;;5105737;28;20185;-48
2022/08/16 11:24:21;;;;;;;28.75;15.55;;;25.60;99.90;;;;;;5095296;28;20170;-50
2022/08/16 11:26:49;;;;;;;19.85;14.77;;;25.60;99.90;;;;;;5095646;28;20177;-58
2022/08/16 11:29:15;;;;;;;22.67;15.52;;;25.60;99.90;;;;;;5078579;28;20202;-48
2022/08/16 11:31:41;;;;;;;22.73;15.00;;;25.50;99.90;;;;;;5077042;28;20194;-50
2022/08/16 11:34:07;;;;;;;24.35;14.68;;;25.60;99.90;;;;;;5078169;28;20637;-52
2022/08/16 11:36:33;;;;;;;22.38;14.30;;;25.60;99.90;;;;;;5096504;28;20251;-47
2022/08/16 11:38:59;;;;;;;24.50;15.32;;;25.70;99.90;;;;;;5096454;27;20193;-59
2022/08/16 11:41:29;;;;;;;21.67;14.05;;;25.80;99.90;;;;;;5077312;28;20190;-51
2022/08/16 11:43:55;;;;;;;21.90;14.80;;;25.90;99.90;;;;;;5105187;28;20181;-51
2022/08/16 11:46:20;;;;;;;18.42;13.32;;;26.00;99.90;;;;;;5115729;28;20251;-50
2022/08/16 11:48:47;;;;;;;21.52;14.00;;;26.10;99.90;;;;;;5063938;28;20309;-52
2022/08/16 11:51:13;;;;;;;20.63;12.68;;;26.10;99.90;;;;;;5095584;28;20178;-46
2022/08/16 11:53:39;;;;;;;20.65;13.43;;;26.20;99.90;;;;;;5109909;28;20189;-47
2022/08/16 11:56:05;;;;;;;23.13;12.93;;;26.30;99.90;;;;;;5114568;28;20178;-48
2022/08/16 11:58:32;;;;;;;20.60;13.05;;;26.40;99.90;;;;;;5096234;28;20233;-52
2022/08/16 12:00:59;;;;;;;22.25;12.80;;;26.50;99.90;;;;;;5114125;28;20687;-54
2022/08/16 12:03:27;;;;;;;27.67;12.07;;;26.60;99.70;;;;;;5098799;28;20173;-46
2022/08/16 12:05:53;;;;;;;21.73;12.27;;;26.70;99.60;;;;;;5115586;28;20168;-49
2022/08/16 12:08:20;;;;;;;22.02;11.60;;;26.80;99.60;;;;;;5085033;28;20220;-49
2022/08/16 12:10:46;;;;;;;22.48;13.10;;;26.90;99.30;;;;;;5094575;28;20185;-50
2022/08/16 12:13:12;;;;;;;23.52;12.82;;;27.10;98.70;;;;;;5105626;28;20580;-46
2022/08/16 12:15:40;;;;;;;22.35;12.93;;;27.10;98.50;;;;;;5113864;28;20226;-48
2022/08/16 12:18:08;;;;;;;23.77;13.93;;;27.20;98.10;;;;;;5095641;28;20693;-48
2022/08/16 12:20:37;;;;;;;18.38;12.40;;;27.20;97.90;;;;;;5115222;28;20172;-51
2022/08/16 12:23:03;;;;;;;20.40;12.63;;;27.20;97.90;;;;;;5086834;28;20197;-50
2022/08/16 12:25:31;;;;;;;17.63;11.65;;;27.20;98.00;;;;;;5094077;28;20205;-47
2022/08/16 12:27:57;;;;;;;24.83;12.55;;;27.40;97.60;;;;;;5081657;28;20663;-51
2022/08/16 12:30:30;;;;;;;19.27;12.95;;;27.30;97.30;;;;;;5076673;28;20177;-47
2022/08/16 12:32:57;;;;;;;21.40;13.43;;;27.30;97.20;;;;;;5094554;27;20183;-49